createdAt,value
2023-05-06T00:02:15.982Z,12.05
2023-05-06T00:04:42.341Z,12.05
2023-05-06T00:07:08.730Z,12.06
2023-05-06T00:09:35.070Z,12.05
2023-05-06T00:12:01.374Z,12.05
2023-05-06T00:14:27.828Z,12.03
2023-05-06T00:16:54.410Z,12.02
2023-05-06T00:19:20.840Z,11.94
2023-05-06T00:21:47.166Z,11.97
2023-05-06T00:24:13.481Z,11.98
2023-05-06T00:26:39.780Z,11.95
2023-05-06T00:29:06.110Z,11.96
2023-05-06T00:31:32.455Z,11.99
2023-05-06T00:33:58.810Z,12.01
2023-05-06T00:36:25.111Z,11.95
2023-05-06T00:38:51.448Z,11.88
2023-05-06T00:41:18.044Z,11.86
2023-05-06T00:43:44.367Z,11.84
2023-05-06T00:46:11.528Z,11.83
2023-05-06T00:48:38.245Z,11.93
2023-05-06T00:51:04.714Z,11.83
2023-05-06T00:53:31.074Z,11.79
2023-05-06T00:55:59.406Z,11.75
2023-05-06T00:58:25.816Z,11.75
2023-05-06T01:00:52.401Z,11.69
2023-05-06T01:03:18.854Z,11.64
2023-05-06T01:05:59.808Z,11.61
2023-05-06T01:08:31.492Z,11.46
2023-05-06T01:11:15.574Z,11.49
2023-05-06T01:13:47.437Z,11.45
2023-05-06T01:16:15.790Z,11.38
2023-05-06T01:18:42.944Z,11.29
2023-05-06T01:21:09.337Z,11.27
2023-05-06T01:23:55.603Z,11.29
2023-05-06T01:26:22.572Z,11.23
2023-05-06T01:28:48.937Z,11.20
2023-05-06T01:31:20.404Z,11.26
2023-05-06T01:33:50.956Z,11.19
2023-05-06T01:36:29.272Z,11.18
2023-05-06T01:39:16.168Z,11.23
2023-05-06T01:41:44.135Z,11.36
2023-05-06T01:44:10.916Z,11.48
2023-05-06T01:46:37.509Z,11.32
2023-05-06T01:49:11.374Z,11.26
2023-05-06T01:51:38.027Z,11.20
2023-05-06T01:54:06.495Z,11.17
2023-05-06T01:56:32.849Z,11.12
2023-05-06T01:58:59.826Z,11.09
2023-05-06T02:01:26.449Z,11.03
2023-05-06T02:04:03.107Z,10.98
2023-05-06T02:06:29.472Z,10.86
2023-05-06T02:08:55.802Z,10.85
2023-05-06T02:11:29.525Z,10.80
2023-05-06T02:13:55.833Z,10.71
2023-05-06T02:16:22.228Z,10.95
2023-05-06T02:18:48.651Z,11.39
2023-05-06T02:21:14.981Z,10.98
2023-05-06T02:23:41.291Z,10.89
2023-05-06T02:26:07.596Z,9.95
2023-05-06T02:28:33.913Z,10.94
2023-05-06T02:31:00.268Z,10.75
2023-05-06T02:33:26.704Z,10.57
2023-05-06T02:35:53.018Z,10.68
2023-05-06T02:38:19.615Z,10.81
2023-05-06T02:40:46.009Z,10.92
2023-05-06T02:43:29.596Z,10.83
2023-05-06T02:45:55.942Z,10.87
2023-05-06T02:48:22.283Z,10.92
2023-05-06T02:50:48.590Z,11.15
2023-05-06T02:53:14.920Z,11.07
2023-05-06T02:55:41.229Z,11.04
2023-05-06T02:58:08.789Z,10.98
2023-05-06T03:00:35.180Z,10.86
2023-05-06T03:03:01.560Z,10.78
2023-05-06T03:05:27.894Z,10.78
2023-05-06T03:07:55.211Z,10.76
2023-05-06T03:10:21.543Z,10.79
2023-05-06T03:12:55.359Z,10.75
2023-05-06T03:15:21.760Z,10.75
2023-05-06T03:17:48.139Z,10.72
2023-05-06T03:20:14.601Z,10.65
2023-05-06T03:22:42.207Z,10.67
2023-05-06T03:25:08.932Z,10.73
2023-05-06T03:27:35.537Z,10.54
2023-05-06T03:30:02.412Z,10.35
2023-05-06T03:32:28.763Z,10.30
2023-05-06T03:34:55.074Z,10.19
2023-05-06T03:37:24.622Z,10.39
2023-05-06T03:39:50.989Z,10.22
2023-05-06T03:42:17.339Z,10.19
2023-05-06T03:44:43.629Z,10.18
2023-05-06T03:47:09.940Z,10.53
2023-05-06T03:49:36.365Z,10.38
2023-05-06T03:52:02.689Z,10.34
2023-05-06T03:54:29.140Z,10.26
2023-05-06T03:56:55.524Z,10.27
2023-05-06T03:59:21.820Z,10.27
2023-05-06T04:01:48.213Z,10.22
2023-05-06T04:04:14.836Z,10.10
2023-05-06T04:06:41.283Z,10.14
2023-05-06T04:09:07.568Z,10.22
2023-05-06T04:11:35.245Z,10.11
2023-05-06T04:14:01.690Z,10.06
2023-05-06T04:16:28.053Z,9.96
2023-05-06T04:18:55.383Z,9.98
2023-05-06T04:21:21.713Z,9.99
2023-05-06T04:23:48.022Z,9.93
2023-05-06T04:26:14.389Z,9.94
2023-05-06T04:28:40.850Z,9.95
2023-05-06T04:31:08.551Z,10.01
2023-05-06T04:33:47.213Z,10.14
2023-05-06T04:36:13.506Z,10.26
2023-05-06T04:38:39.810Z,10.26
2023-05-06T04:41:06.189Z,10.33
2023-05-06T04:43:32.836Z,10.45
2023-05-06T04:45:59.204Z,10.53
2023-05-06T04:48:26.182Z,10.56
2023-05-06T04:50:52.535Z,10.67
2023-05-06T04:53:18.852Z,10.67
2023-05-06T04:55:45.235Z,10.69
2023-05-06T04:58:11.692Z,10.72
2023-05-06T05:00:38.019Z,10.77
2023-05-06T05:03:04.493Z,10.83
2023-05-06T05:05:32.284Z,10.83
2023-05-06T05:07:58.599Z,10.81
2023-05-06T05:10:24.895Z,10.93
2023-05-06T05:12:51.269Z,10.99
2023-05-06T05:15:17.629Z,11.14
2023-05-06T05:17:46.876Z,11.39
2023-05-06T05:20:13.348Z,11.76
2023-05-06T05:22:45.789Z,11.59
2023-05-06T05:25:12.282Z,11.82
2023-05-06T05:27:47.971Z,11.68
2023-05-06T05:30:14.491Z,11.78
2023-05-06T05:32:40.913Z,11.97
2023-05-06T05:35:10.185Z,11.93
2023-05-06T05:37:36.826Z,12.01
2023-05-06T05:40:03.511Z,12.05
2023-05-06T05:42:33.665Z,11.94
2023-05-06T05:45:00.485Z,11.93
2023-05-06T05:47:26.905Z,11.97
2023-05-06T05:49:53.260Z,12.09
2023-05-06T05:52:19.648Z,12.06
2023-05-06T05:54:46.078Z,12.16
2023-05-06T05:57:13.546Z,12.27
2023-05-06T05:59:39.880Z,12.18
2023-05-06T06:02:06.328Z,12.06
2023-05-06T06:04:32.693Z,12.06
2023-05-06T06:06:59.113Z,12.18
2023-05-06T06:09:25.435Z,12.18
2023-05-06T06:11:59.878Z,12.19
2023-05-06T06:14:26.219Z,12.24
2023-05-06T06:16:56.668Z,12.37
2023-05-06T06:19:22.959Z,12.43
2023-05-06T06:21:49.499Z,12.47
2023-05-06T06:24:15.812Z,12.55
2023-05-06T06:26:42.120Z,12.64
2023-05-06T06:29:08.446Z,12.73
2023-05-06T06:31:47.049Z,12.79
2023-05-06T06:34:13.453Z,12.86
2023-05-06T06:36:45.022Z,12.90
2023-05-06T06:39:12.598Z,13.02
2023-05-06T06:41:38.967Z,13.49
2023-05-06T06:44:18.520Z,13.52
2023-05-06T06:46:44.991Z,13.64
2023-05-06T06:49:11.385Z,13.88
2023-05-06T06:51:37.707Z,13.96
2023-05-06T06:54:04.039Z,14.05
2023-05-06T06:56:31.802Z,14.02
2023-05-06T06:59:01.246Z,14.18
2023-05-06T07:01:30.644Z,14.55
2023-05-06T07:04:06.627Z,14.75
2023-05-06T07:06:33.590Z,14.56
2023-05-06T07:08:59.921Z,14.66
2023-05-06T07:11:37.880Z,14.97
2023-05-06T07:14:04.234Z,15.13
2023-05-06T07:16:36.781Z,15.05
2023-05-06T07:19:03.135Z,14.93
2023-05-06T07:21:32.224Z,15.04
2023-05-06T07:24:03.651Z,15.12
2023-05-06T07:26:37.208Z,15.19
2023-05-06T07:29:07.055Z,15.56
2023-05-06T07:31:33.549Z,15.49
2023-05-06T07:34:01.920Z,15.41
2023-05-06T07:36:28.797Z,15.51
2023-05-06T07:38:55.271Z,15.37
2023-05-06T07:41:21.600Z,15.45
2023-05-06T07:43:47.924Z,15.60
2023-05-06T07:46:14.317Z,15.72
2023-05-06T07:48:41.737Z,16.03
2023-05-06T07:51:08.290Z,16.26
2023-05-06T07:53:35.657Z,16.22
2023-05-06T07:56:03.517Z,16.38
2023-05-06T07:58:30.678Z,16.38
2023-05-06T08:00:57.304Z,16.31
2023-05-06T08:03:26.179Z,16.37
2023-05-06T08:05:53.044Z,16.52
2023-05-06T08:08:19.798Z,16.58
2023-05-06T08:10:46.171Z,16.77
2023-05-06T08:13:12.537Z,16.65
2023-05-06T08:15:39.308Z,16.76
2023-05-06T08:18:20.937Z,16.41
2023-05-06T08:20:48.462Z,16.45
2023-05-06T08:23:14.784Z,16.79
2023-05-06T08:25:41.135Z,16.86
2023-05-06T08:28:07.450Z,16.72
2023-05-06T08:30:33.853Z,16.89
2023-05-06T08:33:00.243Z,17.14
2023-05-06T08:35:26.683Z,17.19
2023-05-06T08:37:55.149Z,16.99
2023-05-06T08:40:22.271Z,17.03
2023-05-06T08:42:49.302Z,17.04
2023-05-06T08:45:21.688Z,17.00
2023-05-06T08:47:50.317Z,16.89
2023-05-06T08:50:16.835Z,16.74
2023-05-06T08:52:45.210Z,16.71
2023-05-06T08:55:19.200Z,16.59
2023-05-06T08:57:46.328Z,16.58
2023-05-06T09:00:12.966Z,16.75
2023-05-06T09:02:42.699Z,16.72
2023-05-06T09:05:11.932Z,16.60
2023-05-06T09:07:38.453Z,16.82
2023-05-06T09:10:07.590Z,16.84
2023-05-06T09:12:36.201Z,16.79
2023-05-06T09:15:11.260Z,16.81
2023-05-06T09:17:38.872Z,17.11
2023-05-06T09:20:29.002Z,17.35
2023-05-06T09:22:57.417Z,17.43
2023-05-06T09:25:46.304Z,17.50
2023-05-06T09:28:13.616Z,17.81
2023-05-06T09:30:44.451Z,17.57
2023-05-06T09:33:11.553Z,17.74
2023-05-06T09:35:38.171Z,17.79
2023-05-06T09:38:07.072Z,17.54
2023-05-06T09:40:34.748Z,17.64
2023-05-06T09:43:02.754Z,17.53
2023-05-06T09:45:29.318Z,17.87
2023-05-06T09:47:57.408Z,17.76
2023-05-06T09:50:25.195Z,17.73
2023-05-06T09:52:51.685Z,17.99
2023-05-06T09:55:21.506Z,18.02
2023-05-06T09:57:50.223Z,17.74
2023-05-06T10:00:17.096Z,17.83
2023-05-06T10:02:44.228Z,17.82
2023-05-06T10:05:11.801Z,18.19
2023-05-06T10:07:38.961Z,18.25
2023-05-06T10:10:07.237Z,18.38
2023-05-06T10:12:34.906Z,18.27
2023-05-06T10:15:01.317Z,18.48
2023-05-06T10:17:28.573Z,18.71
2023-05-06T10:19:59.140Z,18.66
2023-05-06T10:22:28.516Z,18.56
2023-05-06T10:24:59.426Z,18.63
2023-05-06T10:27:27.325Z,18.93
2023-05-06T10:29:58.751Z,19.44
2023-05-06T10:32:26.894Z,19.39
2023-05-06T10:34:55.184Z,18.93
2023-05-06T10:37:26.144Z,18.94
2023-05-06T10:39:56.316Z,18.63
2023-05-06T10:42:28.296Z,18.32
2023-05-06T10:45:01.721Z,18.27
2023-05-06T10:47:28.165Z,18.23
2023-05-06T10:50:13.317Z,18.00
2023-05-06T10:52:55.322Z,18.30
2023-05-06T10:55:29.248Z,18.42
2023-05-06T10:58:01.692Z,18.52
2023-05-06T11:00:32.462Z,18.92
2023-05-06T11:03:03.125Z,19.21
2023-05-06T11:05:29.631Z,19.44
2023-05-06T11:08:11.703Z,19.26
2023-05-06T11:10:38.288Z,19.21
2023-05-06T11:13:23.520Z,19.09
2023-05-06T11:15:51.952Z,18.91
2023-05-06T11:18:24.390Z,19.02
2023-05-06T11:20:51.233Z,18.97
2023-05-06T11:23:20.724Z,19.15
2023-05-06T11:25:47.707Z,18.99
2023-05-06T11:28:16.282Z,19.06
2023-05-06T11:30:43.357Z,18.82
2023-05-06T11:33:17.458Z,18.77
2023-05-06T11:35:44.305Z,18.80
2023-05-06T11:38:10.668Z,19.15
2023-05-06T11:40:38.032Z,18.89
2023-05-06T11:43:14.452Z,19.03
2023-05-06T11:45:44.461Z,19.28
2023-05-06T11:48:14.439Z,19.46
2023-05-06T11:50:44.923Z,19.60
2023-05-06T11:53:11.468Z,19.49
2023-05-06T11:55:44.265Z,19.73
2023-05-06T11:58:17.110Z,19.41
2023-05-06T12:00:51.848Z,19.36
2023-05-06T12:03:19.279Z,19.50
2023-05-06T12:05:45.834Z,19.50
2023-05-06T12:08:20.035Z,19.16
2023-05-06T12:10:55.903Z,19.58
2023-05-06T12:13:22.368Z,19.74
2023-05-06T12:15:50.372Z,19.61
2023-05-06T12:18:17.035Z,19.69
2023-05-06T12:20:43.400Z,19.78
2023-05-06T12:23:14.112Z,19.63
2023-05-06T12:25:41.205Z,19.48
2023-05-06T12:28:14.628Z,19.54
2023-05-06T12:30:41.278Z,19.60
2023-05-06T12:33:08.551Z,19.60
2023-05-06T12:35:35.144Z,19.90
2023-05-06T12:38:27.912Z,19.91
2023-05-06T12:40:54.951Z,19.99
2023-05-06T12:43:28.634Z,20.32
2023-05-06T12:46:05.770Z,20.29
2023-05-06T12:48:32.212Z,20.44
2023-05-06T12:50:58.589Z,20.48
2023-05-06T12:53:34.700Z,20.53
2023-05-06T12:56:01.071Z,20.53
2023-05-06T12:58:27.483Z,20.43
2023-05-06T13:00:54.820Z,20.48
2023-05-06T13:03:21.364Z,20.32
2023-05-06T13:05:50.105Z,19.87
2023-05-06T13:08:16.523Z,19.58
2023-05-06T13:10:43.880Z,19.30
2023-05-06T13:13:12.455Z,19.24
2023-05-06T13:15:46.104Z,19.60
2023-05-06T13:18:13.430Z,19.58
2023-05-06T13:20:39.830Z,19.62
2023-05-06T13:23:06.150Z,19.72
2023-05-06T13:25:32.470Z,19.69
2023-05-06T13:27:58.779Z,19.50
2023-05-06T13:30:25.213Z,19.49
2023-05-06T13:32:51.854Z,19.48
2023-05-06T13:35:18.275Z,19.49
2023-05-06T13:37:44.563Z,19.65
2023-05-06T13:40:20.149Z,19.86
2023-05-06T13:42:55.408Z,19.72
2023-05-06T13:45:27.923Z,19.58
2023-05-06T13:47:54.346Z,19.54
2023-05-06T13:50:20.693Z,19.69
2023-05-06T13:52:48.091Z,19.88
2023-05-06T13:55:14.796Z,20.00
2023-05-06T13:57:45.006Z,19.83
2023-05-06T14:00:17.683Z,20.05
2023-05-06T14:02:55.477Z,19.85
2023-05-06T14:05:22.009Z,20.23
2023-05-06T14:07:48.433Z,20.16
2023-05-06T14:10:14.859Z,19.94
2023-05-06T14:12:41.662Z,19.93
2023-05-06T14:15:09.160Z,20.18
2023-05-06T14:17:36.086Z,20.32
2023-05-06T14:20:02.943Z,20.14
2023-05-06T14:22:30.620Z,20.23
2023-05-06T14:24:56.916Z,20.46
2023-05-06T14:27:23.361Z,20.07
2023-05-06T14:29:51.996Z,20.04
2023-05-06T14:32:18.297Z,20.28
2023-05-06T14:34:44.630Z,20.26
2023-05-06T14:37:11.090Z,20.17
2023-05-06T14:39:38.430Z,19.95
2023-05-06T14:42:04.806Z,19.92
2023-05-06T14:44:31.232Z,19.77
2023-05-06T14:46:57.658Z,20.18
2023-05-06T14:49:24.007Z,20.02
2023-05-06T14:51:52.406Z,19.80
2023-05-06T14:54:18.746Z,20.03
2023-05-06T14:56:49.492Z,20.20
2023-05-06T14:59:19.068Z,20.27
2023-05-06T15:01:45.425Z,20.42
2023-05-06T15:04:11.856Z,20.26
2023-05-06T15:06:41.316Z,20.44
2023-05-06T15:09:13.889Z,20.14
2023-05-06T15:11:41.461Z,20.10
2023-05-06T15:14:08.875Z,20.15
2023-05-06T15:16:35.710Z,20.67
2023-05-06T15:19:02.269Z,20.42
2023-05-06T15:21:29.760Z,20.40
2023-05-06T15:23:57.484Z,20.17
2023-05-06T15:26:24.005Z,20.24
2023-05-06T15:28:50.349Z,20.10
2023-05-06T15:31:20.710Z,20.30
2023-05-06T15:33:47.159Z,20.19
2023-05-06T15:36:13.520Z,20.30
2023-05-06T15:38:56.200Z,20.49
2023-05-06T15:41:26.737Z,20.37
2023-05-06T15:43:58.297Z,20.34
2023-05-06T15:46:26.419Z,20.25
2023-05-06T15:49:09.085Z,20.31
2023-05-06T15:51:41.613Z,20.24
2023-05-06T15:54:08.048Z,20.18
2023-05-06T15:56:40.763Z,19.92
2023-05-06T15:59:08.297Z,20.02
2023-05-06T16:02:04.599Z,20.00
2023-05-06T16:04:21.292Z,19.84
2023-05-06T16:06:47.961Z,20.06
2023-05-06T16:09:14.434Z,20.39
2023-05-06T16:11:42.533Z,20.41
2023-05-06T16:14:09.273Z,20.26
2023-05-06T16:16:38.199Z,20.18
2023-05-06T16:19:06.633Z,19.99
2023-05-06T16:21:32.970Z,19.93
2023-05-06T16:24:00.785Z,19.93
2023-05-06T16:26:27.128Z,20.07
2023-05-06T16:28:53.799Z,20.21
2023-05-06T16:31:20.346Z,20.22
2023-05-06T16:33:46.716Z,20.26
2023-05-06T16:36:13.048Z,20.20
2023-05-06T16:38:39.374Z,20.12
2023-05-06T16:41:05.770Z,20.07
2023-05-06T16:43:33.100Z,19.94
2023-05-06T16:45:59.785Z,19.91
2023-05-06T16:48:26.288Z,19.87
2023-05-06T16:50:52.654Z,20.00
2023-05-06T16:53:19.108Z,19.91
2023-05-06T16:55:46.702Z,19.89
2023-05-06T16:58:13.049Z,19.84
2023-05-06T17:00:39.463Z,19.87
2023-05-06T17:03:06.987Z,19.86
2023-05-06T17:05:34.465Z,19.75
2023-05-06T17:08:00.957Z,19.85
2023-05-06T17:10:29.355Z,19.86
2023-05-06T17:12:57.216Z,19.73
2023-05-06T17:15:24.135Z,19.51
2023-05-06T17:17:51.022Z,19.48
2023-05-06T17:20:17.451Z,19.27
2023-05-06T17:22:43.782Z,19.41
2023-05-06T17:25:10.280Z,19.48
2023-05-06T17:27:36.649Z,19.36
2023-05-06T17:30:05.410Z,19.27
2023-05-06T17:32:31.821Z,19.15
2023-05-06T17:34:58.393Z,18.95
2023-05-06T17:37:24.751Z,18.80
2023-05-06T17:39:53.254Z,18.69
2023-05-06T17:42:19.550Z,18.62
2023-05-06T17:44:45.887Z,18.56
2023-05-06T17:47:13.193Z,18.50
2023-05-06T17:49:39.545Z,18.40
2023-05-06T17:52:06.868Z,18.24
2023-05-06T17:54:34.712Z,18.14
2023-05-06T17:57:03.257Z,17.98
2023-05-06T17:59:32.779Z,17.98
2023-05-06T18:02:00.248Z,17.83
2023-05-06T18:04:26.716Z,17.76
2023-05-06T18:06:53.012Z,17.68
2023-05-06T18:09:19.774Z,17.69
2023-05-06T18:11:47.232Z,17.61
2023-05-06T18:14:13.696Z,17.35
2023-05-06T18:16:44.412Z,17.19
2023-05-06T18:19:10.834Z,17.14
2023-05-06T18:21:41.307Z,16.93
2023-05-06T18:24:15.992Z,16.71
2023-05-06T18:26:44.872Z,16.61
2023-05-06T18:29:12.064Z,16.45
2023-05-06T18:31:38.475Z,16.26
2023-05-06T18:34:04.890Z,16.10
2023-05-06T18:36:31.241Z,16.11
2023-05-06T18:38:58.570Z,15.89
2023-05-06T18:41:25.061Z,15.66
2023-05-06T18:43:51.417Z,15.51
2023-05-06T18:46:17.930Z,15.40
2023-05-06T18:48:44.493Z,15.34
2023-05-06T18:51:14.536Z,15.27
2023-05-06T18:53:41.195Z,15.31
2023-05-06T18:56:08.280Z,15.29
2023-05-06T18:58:35.869Z,15.14
2023-05-06T19:01:09.865Z,15.17
2023-05-06T19:03:42.607Z,15.10
2023-05-06T19:06:15.355Z,15.01
2023-05-06T19:08:41.728Z,14.91
2023-05-06T19:11:13.892Z,14.79
2023-05-06T19:13:40.297Z,15.07
2023-05-06T19:16:06.594Z,14.95
2023-05-06T19:18:32.923Z,14.02
2023-05-06T19:20:59.304Z,14.55
2023-05-06T19:23:31.657Z,14.48
2023-05-06T19:25:57.969Z,14.32
2023-05-06T19:28:24.851Z,14.28
2023-05-06T19:30:51.198Z,14.26
2023-05-06T19:33:18.369Z,14.21
2023-05-06T19:35:44.723Z,14.06
2023-05-06T19:38:12.056Z,13.98
2023-05-06T19:40:39.425Z,13.87
2023-05-06T19:43:07.055Z,13.78
2023-05-06T19:45:33.911Z,13.75
2023-05-06T19:48:00.930Z,13.67
2023-05-06T19:50:34.265Z,13.66
2023-05-06T19:53:05.929Z,13.57
2023-05-06T19:55:34.536Z,13.46
2023-05-06T19:58:02.295Z,13.52
2023-05-06T20:00:35.962Z,13.41
2023-05-06T20:03:03.876Z,13.25
2023-05-06T20:05:31.456Z,13.40
2023-05-06T20:07:59.679Z,13.23
2023-05-06T20:10:31.105Z,13.12
2023-05-06T20:13:00.611Z,12.99
2023-05-06T20:15:28.198Z,12.88
2023-05-06T20:17:54.796Z,12.84
2023-05-06T20:20:21.474Z,12.82
2023-05-06T20:22:48.868Z,12.78
2023-05-06T20:25:16.216Z,12.74
2023-05-06T20:27:43.348Z,12.71
2023-05-06T20:30:09.961Z,12.66
2023-05-06T20:32:37.177Z,12.57
2023-05-06T20:35:17.512Z,12.55
2023-05-06T20:37:46.936Z,12.51
2023-05-06T20:40:13.500Z,12.44
2023-05-06T20:42:40.973Z,12.32
2023-05-06T20:45:14.515Z,12.24
2023-05-06T20:47:40.970Z,12.16
2023-05-06T20:50:07.434Z,12.09
2023-05-06T20:52:34.871Z,12.01
2023-05-06T20:55:01.676Z,11.90
2023-05-06T20:57:28.388Z,11.90
2023-05-06T20:59:56.059Z,11.83
2023-05-06T21:02:22.510Z,11.77
2023-05-06T21:04:48.967Z,11.77
2023-05-06T21:07:26.734Z,11.72
2023-05-06T21:10:02.073Z,11.67
2023-05-06T21:12:28.485Z,11.66
2023-05-06T21:14:54.876Z,11.64
2023-05-06T21:17:21.254Z,11.59
2023-05-06T21:19:48.590Z,11.55
2023-05-06T21:22:15.332Z,11.49
2023-05-06T21:24:47.955Z,11.52
2023-05-06T21:27:15.295Z,11.46
2023-05-06T21:29:41.665Z,11.43
2023-05-06T21:32:18.375Z,11.43
2023-05-06T21:34:46.737Z,11.44
2023-05-06T21:37:13.030Z,11.41
2023-05-06T21:39:39.343Z,11.43
2023-05-06T21:42:25.022Z,11.27
2023-05-06T21:44:51.551Z,11.25
2023-05-06T21:47:18.890Z,11.26
2023-05-06T21:49:45.267Z,11.25
2023-05-06T21:52:11.665Z,11.31
2023-05-06T21:54:38.014Z,11.28
2023-05-06T21:57:07.876Z,11.23
2023-05-06T21:59:35.237Z,11.28
2023-05-06T22:02:02.141Z,11.19
2023-05-06T22:04:28.517Z,11.15
2023-05-06T22:06:54.952Z,11.21
2023-05-06T22:09:21.410Z,11.14
2023-05-06T22:11:47.710Z,11.15
2023-05-06T22:14:14.941Z,11.13
2023-05-06T22:16:41.527Z,11.27
2023-05-06T22:19:08.362Z,11.13
2023-05-06T22:21:34.992Z,11.05
2023-05-06T22:24:04.701Z,11.02
2023-05-06T22:26:32.953Z,10.94
2023-05-06T22:28:59.510Z,10.93
2023-05-06T22:31:25.876Z,10.89
2023-05-06T22:33:55.170Z,10.90
2023-05-06T22:36:22.619Z,10.93
2023-05-06T22:38:48.955Z,10.95
2023-05-06T22:41:15.924Z,10.89
2023-05-06T22:43:42.264Z,10.83
2023-05-06T22:46:08.634Z,10.73
2023-05-06T22:48:35.012Z,10.70
2023-05-06T22:51:01.721Z,10.65
2023-05-06T22:53:28.072Z,10.62
2023-05-06T22:55:54.394Z,10.59
2023-05-06T22:58:20.804Z,10.72
2023-05-06T23:00:47.967Z,10.66
2023-05-06T23:03:14.854Z,10.68
2023-05-06T23:05:41.513Z,10.76
2023-05-06T23:08:07.800Z,10.66
2023-05-06T23:10:34.126Z,10.60
2023-05-06T23:13:01.475Z,10.61
2023-05-06T23:15:28.025Z,10.50
2023-05-06T23:17:54.523Z,10.50
2023-05-06T23:20:21.386Z,10.55
2023-05-06T23:22:51.731Z,10.54
2023-05-06T23:25:18.242Z,10.60
2023-05-06T23:27:44.847Z,10.58
2023-05-06T23:30:11.391Z,10.61
2023-05-06T23:32:38.230Z,10.53
2023-05-06T23:35:04.862Z,10.47
2023-05-06T23:37:42.329Z,10.50
2023-05-06T23:40:08.774Z,10.41
2023-05-06T23:42:35.100Z,10.30
2023-05-06T23:45:01.409Z,10.31
2023-05-06T23:47:27.822Z,10.30
2023-05-06T23:49:54.158Z,10.20
2023-05-06T23:52:21.242Z,10.18
2023-05-06T23:54:47.641Z,10.23
2023-05-06T23:57:13.955Z,10.39
2023-05-06T23:59:40.368Z,10.20
